createdAt,value
2019-02-05T00:00:52.975Z,7.00
2019-02-05T00:01:52.967Z,7.20
2019-02-05T00:02:52.946Z,6.80
2019-02-05T00:03:52.937Z,7.00
2019-02-05T00:04:52.962Z,8.60
2019-02-05T00:05:52.916Z,7.60
2019-02-05T00:06:52.905Z,7.60
2019-02-05T00:07:52.891Z,7.00
2019-02-05T00:08:52.877Z,8.50
2019-02-05T00:09:52.902Z,7.30
2019-02-05T00:10:52.861Z,7.50
2019-02-05T00:11:52.866Z,7.20
2019-02-05T00:12:52.846Z,5.90
2019-02-05T00:13:52.825Z,7.80
2019-02-05T00:14:52.848Z,7.10
2019-02-05T00:15:52.853Z,6.70
2019-02-05T00:16:52.863Z,6.70
2019-02-05T00:17:52.806Z,7.20
2019-02-05T00:18:52.798Z,6.80
2019-02-05T00:19:52.773Z,7.60
2019-02-05T00:20:52.781Z,7.30
2019-02-05T00:21:52.733Z,5.60
2019-02-05T00:22:52.742Z,8.10
2019-02-05T00:23:52.726Z,5.90
2019-02-05T00:24:52.731Z,8.00
2019-02-05T00:25:52.737Z,8.10
2019-02-05T00:26:52.703Z,6.70
2019-02-05T00:27:52.798Z,7.40
2019-02-05T00:28:52.717Z,6.70
2019-02-05T00:29:52.725Z,6.30
2019-02-05T00:30:52.679Z,7.30
2019-02-05T00:31:52.714Z,7.10
2019-02-05T00:32:52.618Z,8.20
2019-02-05T00:33:52.645Z,9.30
2019-02-05T00:34:52.722Z,6.60
2019-02-05T00:35:52.647Z,8.50
2019-02-05T00:36:52.577Z,5.70
2019-02-05T00:37:52.629Z,10.00
2019-02-05T00:38:52.565Z,6.00
2019-02-05T00:39:52.593Z,7.00
2019-02-05T00:40:52.585Z,6.40
2019-02-05T00:41:52.531Z,8.80
2019-02-05T00:42:52.565Z,5.70
2019-02-05T00:43:52.565Z,5.30
2019-02-05T00:44:52.551Z,6.80
2019-02-05T00:45:52.524Z,6.90
2019-02-05T00:46:52.495Z,8.40
2019-02-05T00:47:52.460Z,7.50
2019-02-05T00:48:52.476Z,5.80
2019-02-05T00:49:52.446Z,6.60
2019-02-05T00:50:52.464Z,7.70
2019-02-05T00:51:52.461Z,5.80
2019-02-05T00:52:52.466Z,5.00
2019-02-05T00:53:52.405Z,6.10
2019-02-05T00:54:52.408Z,6.20
2019-02-05T00:55:52.424Z,6.50
2019-02-05T00:56:52.379Z,8.30
2019-02-05T00:57:52.455Z,5.90
2019-02-05T00:58:52.402Z,6.80
2019-02-05T00:59:52.380Z,6.00
2019-02-05T01:00:52.336Z,6.50
2019-02-05T01:01:52.363Z,6.80
2019-02-05T01:02:52.313Z,6.50
2019-02-05T01:03:52.350Z,6.90
2019-02-05T01:04:52.283Z,6.90
2019-02-05T01:05:52.368Z,6.40
2019-02-05T01:06:52.272Z,5.90
2019-02-05T01:07:52.284Z,5.70
2019-02-05T01:08:52.259Z,5.50
2019-02-05T01:09:52.282Z,5.90
2019-02-05T01:10:52.207Z,5.40
2019-02-05T01:11:52.226Z,6.70
2019-02-05T01:12:52.207Z,5.20
2019-02-05T01:13:52.188Z,4.50
2019-02-05T01:14:52.211Z,5.30
2019-02-05T01:15:52.258Z,5.70
2019-02-05T01:16:52.150Z,5.40
2019-02-05T01:17:52.146Z,5.70
2019-02-05T01:18:52.145Z,7.40
2019-02-05T01:19:52.166Z,7.00
2019-02-05T01:20:52.113Z,6.60
2019-02-05T01:21:52.099Z,7.30
2019-02-05T01:22:52.127Z,7.10
2019-02-05T01:23:52.200Z,6.10
2019-02-05T01:24:52.077Z,5.90
2019-02-05T01:25:52.078Z,6.10
2019-02-05T01:26:52.076Z,4.80
2019-02-05T01:27:52.059Z,6.50
2019-02-05T01:28:52.030Z,5.10
2019-02-05T01:29:52.070Z,4.90
2019-02-05T01:30:52.005Z,3.90
2019-02-05T01:31:51.994Z,5.20
2019-02-05T01:32:51.977Z,4.60
2019-02-05T01:33:52.026Z,4.90
2019-02-05T01:34:51.950Z,3.60
2019-02-05T01:35:51.939Z,4.40
2019-02-05T01:36:51.939Z,3.70
2019-02-05T01:37:51.932Z,6.20
2019-02-05T01:38:51.931Z,4.90
2019-02-05T01:39:51.935Z,5.50
2019-02-05T01:40:51.897Z,5.30
2019-02-05T01:41:51.883Z,6.20
2019-02-05T01:42:51.864Z,6.50
2019-02-05T01:43:51.886Z,4.60
2019-02-05T01:44:51.870Z,4.70
2019-02-05T01:45:51.843Z,5.40
2019-02-05T01:46:51.834Z,7.90
2019-02-05T01:47:51.844Z,5.20
2019-02-05T01:48:51.834Z,5.50
2019-02-05T01:49:51.802Z,5.80
2019-02-05T01:50:51.813Z,6.10
2019-02-05T01:51:51.770Z,5.60
2019-02-05T01:52:51.845Z,6.00
2019-02-05T01:53:51.833Z,5.70
2019-02-05T01:54:51.781Z,5.40
2019-02-05T01:55:51.852Z,6.50
2019-02-05T01:56:51.734Z,5.40
2019-02-05T01:57:51.714Z,7.60
2019-02-05T01:58:51.712Z,6.60
2019-02-05T01:59:51.690Z,6.70
2019-02-05T02:00:51.679Z,5.50
2019-02-05T02:01:51.668Z,5.20
2019-02-05T02:02:51.692Z,5.50
2019-02-05T02:03:51.668Z,5.40
2019-02-05T02:04:51.653Z,5.50
2019-02-05T02:05:51.623Z,5.30
2019-02-05T02:06:51.654Z,5.00
2019-02-05T02:07:51.609Z,6.20
2019-02-05T02:08:51.617Z,7.40
2019-02-05T02:09:51.587Z,6.70
2019-02-05T02:10:51.569Z,6.10
2019-02-05T02:11:51.626Z,5.00
2019-02-05T02:12:51.595Z,4.40
2019-02-05T02:13:51.572Z,5.60
2019-02-05T02:14:51.534Z,6.30
2019-02-05T02:15:51.574Z,6.10
2019-02-05T02:16:51.499Z,6.10
2019-02-05T02:17:51.498Z,7.70
2019-02-05T02:18:51.517Z,4.80
2019-02-05T02:19:51.469Z,5.30
2019-02-05T02:20:51.480Z,7.60
2019-02-05T02:21:51.506Z,6.40
2019-02-05T02:22:51.440Z,5.20
2019-02-05T02:23:51.454Z,5.90
2019-02-05T02:24:51.455Z,5.70
2019-02-05T02:25:51.420Z,5.20
2019-02-05T02:26:52.339Z,6.30
2019-02-05T02:27:51.382Z,5.50
2019-02-05T02:28:51.403Z,5.50
2019-02-05T02:29:51.354Z,6.30
2019-02-05T02:30:51.381Z,5.20
2019-02-05T02:31:51.361Z,5.30
2019-02-05T02:32:51.349Z,5.10
2019-02-05T02:33:51.345Z,5.40
2019-02-05T02:34:51.317Z,5.00
2019-02-05T02:35:51.295Z,5.30
2019-02-05T02:36:51.362Z,7.10
2019-02-05T02:37:51.280Z,6.00
2019-02-05T02:38:51.316Z,5.90
2019-02-05T02:39:51.269Z,5.40
2019-02-05T02:40:51.261Z,8.20
2019-02-05T02:41:51.234Z,6.20
2019-02-05T02:42:51.235Z,6.60
2019-02-05T02:43:51.215Z,7.20
2019-02-05T02:44:51.214Z,7.70
2019-02-05T02:45:51.188Z,5.70
2019-02-05T02:46:51.233Z,6.30
2019-02-05T02:47:51.164Z,6.00
2019-02-05T02:48:51.172Z,6.40
2019-02-05T02:49:51.157Z,5.60
2019-02-05T02:50:51.140Z,7.40
2019-02-05T02:51:51.134Z,6.10
2019-02-05T02:52:51.228Z,5.20
2019-02-05T02:53:51.143Z,5.80
2019-02-05T02:54:51.129Z,5.50
2019-02-05T02:55:51.198Z,7.90
2019-02-05T02:56:51.074Z,5.60
2019-02-05T02:57:51.128Z,5.00
2019-02-05T02:58:51.067Z,7.30
2019-02-05T02:59:51.063Z,5.70
2019-02-05T03:00:51.033Z,6.00
2019-02-05T03:01:51.027Z,5.10
2019-02-05T03:02:51.116Z,5.00
2019-02-05T03:03:51.058Z,5.20
2019-02-05T03:04:51.005Z,5.50
2019-02-05T03:05:50.982Z,5.80
2019-02-05T03:06:51.006Z,5.20
2019-02-05T03:07:50.968Z,5.10
2019-02-05T03:08:50.974Z,6.30
2019-02-05T03:09:50.963Z,4.60
2019-02-05T03:10:50.965Z,5.20
2019-02-05T03:11:50.925Z,5.30
2019-02-05T03:12:50.905Z,5.80
2019-02-05T03:13:50.899Z,6.90
2019-02-05T03:14:50.901Z,4.80
2019-02-05T03:15:50.883Z,4.70
2019-02-05T03:16:50.873Z,6.00
2019-02-05T03:17:50.857Z,6.00
2019-02-05T03:18:50.822Z,5.20
2019-02-05T03:19:50.814Z,4.50
2019-02-05T03:20:50.836Z,5.70
2019-02-05T03:21:50.791Z,5.70
2019-02-05T03:22:50.796Z,4.50
2019-02-05T03:23:50.775Z,5.10
2019-02-05T03:24:50.777Z,4.30
2019-02-05T03:25:50.761Z,5.00
2019-02-05T03:26:50.759Z,6.70
2019-02-05T03:27:53.543Z,4.70
2019-02-05T03:28:50.827Z,4.70
2019-02-05T03:29:50.728Z,4.40
2019-02-05T03:30:50.826Z,5.50
2019-02-05T03:31:50.721Z,4.50
2019-02-05T03:32:50.688Z,6.80
2019-02-05T03:33:50.666Z,4.50
2019-02-05T03:34:50.681Z,4.80
2019-02-05T03:35:50.683Z,5.70
2019-02-05T03:36:50.640Z,3.70
2019-02-05T03:37:50.649Z,5.00
2019-02-05T03:38:50.658Z,5.20
2019-02-05T03:39:50.644Z,5.70
2019-02-05T03:40:50.602Z,5.90
2019-02-05T03:41:50.588Z,4.50
2019-02-05T03:42:50.597Z,4.70
2019-02-05T03:43:50.559Z,4.70
2019-02-05T03:44:50.601Z,5.10
2019-02-05T03:45:50.560Z,4.00
2019-02-05T03:46:50.536Z,4.90
2019-02-05T03:47:50.530Z,5.40
2019-02-05T03:48:50.596Z,4.10
2019-02-05T03:49:50.576Z,4.80
2019-02-05T03:50:50.495Z,4.40
2019-02-05T03:51:50.587Z,4.70
2019-02-05T03:52:50.460Z,4.20
2019-02-05T03:53:50.470Z,4.40
2019-02-05T03:54:50.489Z,5.60
2019-02-05T03:55:50.445Z,5.40
2019-02-05T03:56:50.422Z,5.00
2019-02-05T03:57:50.415Z,5.00
2019-02-05T03:58:50.418Z,4.80
2019-02-05T03:59:50.441Z,4.90
2019-02-05T04:00:50.422Z,5.70
2019-02-05T04:01:50.407Z,4.40
2019-02-05T04:02:50.352Z,5.00
2019-02-05T04:03:50.405Z,4.80
2019-02-05T04:04:50.342Z,5.60
2019-02-05T04:05:50.356Z,4.70
2019-02-05T04:06:50.337Z,4.30
2019-02-05T04:07:50.351Z,5.00
2019-02-05T04:08:50.287Z,4.80
2019-02-05T04:09:50.280Z,4.30
2019-02-05T04:10:50.304Z,4.10
2019-02-05T04:11:50.317Z,3.80
2019-02-05T04:12:50.279Z,5.20
2019-02-05T04:13:50.277Z,4.60
2019-02-05T04:14:50.256Z,4.60
2019-02-05T04:15:50.213Z,4.80
2019-02-05T04:16:50.294Z,5.10
2019-02-05T04:17:50.204Z,5.30
2019-02-05T04:18:50.186Z,4.20
2019-02-05T04:19:50.207Z,4.70
2019-02-05T04:20:50.176Z,4.30
2019-02-05T04:21:50.171Z,5.60
2019-02-05T04:22:50.149Z,4.80
2019-02-05T04:23:50.139Z,3.90
2019-02-05T04:24:50.146Z,4.60
2019-02-05T04:25:50.120Z,4.80
2019-02-05T04:26:50.149Z,5.40
2019-02-05T04:27:50.082Z,4.20
2019-02-05T04:28:50.079Z,4.10
2019-02-05T04:29:50.129Z,3.90
2019-02-05T04:30:50.135Z,3.70
2019-02-05T04:31:50.067Z,4.00
2019-02-05T04:32:50.048Z,3.80
2019-02-05T04:33:50.052Z,3.10
2019-02-05T04:34:50.081Z,3.40
2019-02-05T04:35:50.068Z,5.50
2019-02-05T04:36:49.986Z,4.30
2019-02-05T04:37:49.984Z,4.60
2019-02-05T04:38:49.990Z,4.60
2019-02-05T04:39:49.994Z,4.10
2019-02-05T04:40:49.980Z,3.30
2019-02-05T04:41:49.941Z,4.10
2019-02-05T04:42:49.971Z,3.80
2019-02-05T04:43:49.919Z,3.60
2019-02-05T04:44:49.926Z,5.30
2019-02-05T04:45:49.914Z,6.10
2019-02-05T04:46:49.905Z,5.10
2019-02-05T04:47:49.870Z,4.30
2019-02-05T04:48:49.877Z,3.90
2019-02-05T04:49:49.887Z,4.10
2019-02-05T04:50:49.831Z,4.90
2019-02-05T04:51:49.848Z,4.60
2019-02-05T04:52:49.817Z,3.90
2019-02-05T04:53:49.810Z,4.10
2019-02-05T04:54:49.811Z,4.50
2019-02-05T04:55:49.809Z,5.20
2019-02-05T04:56:49.777Z,3.70
2019-02-05T04:57:58.076Z,5.80
2019-02-05T04:58:50.748Z,4.00
2019-02-05T04:59:49.790Z,4.60
2019-02-05T05:00:49.790Z,4.20
2019-02-05T05:01:49.728Z,3.60
2019-02-05T05:02:49.733Z,5.50
2019-02-05T05:03:49.730Z,3.80
2019-02-05T05:04:49.728Z,4.10
2019-02-05T05:05:49.685Z,4.50
2019-02-05T05:06:49.685Z,4.90
2019-02-05T05:07:49.665Z,4.40
2019-02-05T05:08:49.691Z,4.00
2019-02-05T05:09:49.682Z,3.90
2019-02-05T05:10:49.641Z,5.10
2019-02-05T05:11:49.626Z,5.60
2019-02-05T05:12:49.632Z,4.50
2019-02-05T05:13:49.628Z,5.00
2019-02-05T05:14:49.618Z,4.30
2019-02-05T05:15:49.586Z,5.10
2019-02-05T05:16:49.608Z,6.00
2019-02-05T05:17:49.554Z,5.30
2019-02-05T05:18:49.614Z,4.00
2019-02-05T05:19:49.646Z,4.30
2019-02-05T05:20:49.563Z,5.60
2019-02-05T05:21:49.526Z,4.50
2019-02-05T05:22:49.533Z,5.10
2019-02-05T05:23:49.487Z,5.10
2019-02-05T05:24:49.502Z,5.00
2019-02-05T05:25:49.503Z,5.00
2019-02-05T05:26:49.465Z,4.70
2019-02-05T05:27:49.506Z,4.70
2019-02-05T05:28:49.438Z,5.00
2019-02-05T05:29:49.500Z,5.10
2019-02-05T05:30:49.441Z,4.60
2019-02-05T05:31:49.413Z,6.20
2019-02-05T05:32:49.393Z,4.90
2019-02-05T05:33:49.402Z,3.70
2019-02-05T05:34:49.369Z,5.50
2019-02-05T05:35:49.351Z,5.10
2019-02-05T05:36:49.363Z,5.80
2019-02-05T05:37:49.371Z,4.30
2019-02-05T05:38:49.350Z,6.50
2019-02-05T05:39:49.353Z,6.00
2019-02-05T05:40:49.359Z,7.30
2019-02-05T05:41:49.293Z,5.50
2019-02-05T05:42:49.291Z,6.80
2019-02-05T05:43:49.272Z,4.20
2019-02-05T05:44:49.298Z,3.60
2019-02-05T05:45:49.283Z,4.60
2019-02-05T05:46:49.249Z,4.90
2019-02-05T05:47:49.274Z,5.80
2019-02-05T05:48:49.258Z,4.50
2019-02-05T05:49:49.232Z,5.50
2019-02-05T05:50:49.250Z,5.00
2019-02-05T05:51:49.214Z,5.80
2019-02-05T05:52:49.240Z,3.90
2019-02-05T05:53:49.221Z,5.60
2019-02-05T05:54:49.150Z,5.00
2019-02-05T05:55:49.159Z,5.60
2019-02-05T05:56:49.130Z,4.50
2019-02-05T05:57:49.112Z,5.20
2019-02-05T05:58:49.112Z,4.10
2019-02-05T05:59:49.145Z,6.30
2019-02-05T06:00:49.089Z,4.60
2019-02-05T06:01:49.097Z,5.90
2019-02-05T06:02:49.060Z,7.00
2019-02-05T06:03:49.068Z,5.10
2019-02-05T06:04:49.116Z,4.60
2019-02-05T06:05:49.110Z,4.80
2019-02-05T06:06:49.081Z,6.50
2019-02-05T06:07:49.024Z,9.00
2019-02-05T06:08:49.008Z,5.80
2019-02-05T06:09:49.033Z,5.60
2019-02-05T06:10:49.005Z,6.00
2019-02-05T06:11:48.998Z,4.80
2019-02-05T06:12:48.989Z,4.80
2019-02-05T06:13:48.956Z,4.40
2019-02-05T06:14:48.983Z,5.70
2019-02-05T06:15:48.967Z,5.50
2019-02-05T06:16:48.944Z,7.00
2019-02-05T06:17:48.979Z,5.10
2019-02-05T06:18:48.949Z,5.50
2019-02-05T06:19:48.879Z,5.20
2019-02-05T06:20:48.903Z,4.80
2019-02-05T06:21:48.852Z,5.50
2019-02-05T06:22:48.850Z,5.20
2019-02-05T06:23:48.850Z,4.90
2019-02-05T06:24:48.845Z,5.40
2019-02-05T06:25:48.913Z,5.30
2019-02-05T06:26:48.800Z,8.70
2019-02-05T06:27:48.790Z,6.20
2019-02-05T06:28:48.809Z,4.70
2019-02-05T06:29:48.772Z,6.20
2019-02-05T06:30:48.783Z,5.20
2019-02-05T06:31:48.782Z,6.70
2019-02-05T06:32:48.736Z,4.50
2019-02-05T06:33:48.766Z,5.80
2019-02-05T06:34:48.710Z,6.00
2019-02-05T06:35:48.723Z,5.60
2019-02-05T06:36:48.728Z,6.60
2019-02-05T06:37:48.704Z,5.70
2019-02-05T06:38:48.674Z,7.40
2019-02-05T06:39:48.682Z,7.00
2019-02-05T06:40:48.680Z,5.90
2019-02-05T06:41:48.676Z,8.40
2019-02-05T06:42:48.653Z,6.40
2019-02-05T06:43:48.636Z,6.30
2019-02-05T06:44:48.622Z,5.70
2019-02-05T06:45:48.632Z,7.80
2019-02-05T06:46:48.603Z,5.20
2019-02-05T06:47:48.600Z,5.40
2019-02-05T06:48:48.584Z,6.90
2019-02-05T06:49:48.552Z,8.80
2019-02-05T06:50:48.548Z,6.00
2019-02-05T06:51:48.628Z,5.70
2019-02-05T06:52:48.523Z,7.00
2019-02-05T06:53:48.547Z,7.00
2019-02-05T06:54:48.552Z,6.60
2019-02-05T06:55:48.503Z,5.80
2019-02-05T06:56:48.523Z,6.70
2019-02-05T06:57:48.523Z,7.70
2019-02-05T06:58:48.524Z,6.30
2019-02-05T06:59:48.444Z,6.50
2019-02-05T07:00:48.480Z,6.50
2019-02-05T07:01:48.450Z,6.60
2019-02-05T07:02:48.430Z,8.30
2019-02-05T07:03:48.414Z,8.30
2019-02-05T07:04:49.287Z,6.50
2019-02-05T07:05:48.418Z,7.60
2019-02-05T07:06:48.416Z,6.80
2019-02-05T07:07:48.385Z,8.40
2019-02-05T07:08:48.428Z,7.90
2019-02-05T07:09:48.383Z,5.90
2019-02-05T07:10:48.363Z,6.50
2019-02-05T07:11:48.343Z,6.70
2019-02-05T07:12:48.353Z,5.60
2019-02-05T07:13:48.313Z,7.00
2019-02-05T07:14:48.303Z,7.90
2019-02-05T07:15:48.329Z,7.60
2019-02-05T07:16:48.290Z,9.10
2019-02-05T07:17:50.136Z,6.50
2019-02-05T07:18:48.258Z,7.00
2019-02-05T07:19:48.243Z,6.20
2019-02-05T07:20:48.250Z,7.10
2019-02-05T07:21:48.262Z,7.80
2019-02-05T07:22:48.221Z,7.50
2019-02-05T07:23:48.213Z,7.30
2019-02-05T07:24:48.199Z,6.30
2019-02-05T07:25:48.215Z,6.50
2019-02-05T07:26:48.183Z,6.80
2019-02-05T07:27:48.194Z,7.70
2019-02-05T07:28:58.202Z,5.80
2019-02-05T07:29:49.220Z,7.30
2019-02-05T07:30:48.138Z,6.80
2019-02-05T07:31:48.117Z,7.50
2019-02-05T07:32:48.159Z,7.40
2019-02-05T07:33:48.125Z,6.90
2019-02-05T07:34:48.157Z,9.10
2019-02-05T07:35:48.121Z,6.60
2019-02-05T07:36:48.090Z,8.20
2019-02-05T07:37:48.090Z,6.40
2019-02-05T07:38:48.083Z,6.50
2019-02-05T07:39:48.048Z,8.50
2019-02-05T07:40:48.032Z,8.90
2019-02-05T07:41:48.017Z,7.20
2019-02-05T07:42:48.001Z,6.30
2019-02-05T07:43:48.018Z,6.60
2019-02-05T07:44:48.047Z,8.10
2019-02-05T07:45:48.038Z,8.10
2019-02-05T07:46:47.991Z,9.30
2019-02-05T07:47:48.023Z,8.00
2019-02-05T07:48:47.942Z,8.70
2019-02-05T07:49:47.967Z,8.00
2019-02-05T07:50:47.919Z,8.00
2019-02-05T07:51:47.912Z,8.70
2019-02-05T07:52:47.901Z,7.50
2019-02-05T07:53:47.913Z,9.20
2019-02-05T07:54:47.943Z,8.70
2019-02-05T07:55:47.943Z,7.40
2019-02-05T07:56:47.856Z,6.50
2019-02-05T07:57:47.872Z,8.70
2019-02-05T07:58:47.887Z,7.40
2019-02-05T07:59:47.820Z,7.00
2019-02-05T08:00:47.818Z,7.80
2019-02-05T08:01:47.882Z,6.90
2019-02-05T08:02:47.819Z,7.20
2019-02-05T08:03:47.767Z,7.50
2019-02-05T08:04:47.773Z,6.50
2019-02-05T08:05:47.783Z,7.20
2019-02-05T08:06:47.793Z,6.90
2019-02-05T08:07:47.734Z,6.60
2019-02-05T08:08:47.735Z,6.60
2019-02-05T08:09:47.754Z,8.50
2019-02-05T08:10:47.706Z,6.00
2019-02-05T08:11:47.705Z,7.70
2019-02-05T08:12:47.724Z,6.60
2019-02-05T08:13:47.699Z,8.00
2019-02-05T08:14:47.678Z,6.30
2019-02-05T08:15:47.645Z,6.80
2019-02-05T08:16:48.102Z,7.00
2019-02-05T08:17:47.643Z,7.60
2019-02-05T08:18:47.614Z,7.70
2019-02-05T08:19:47.610Z,6.20
2019-02-05T08:20:47.708Z,7.20
2019-02-05T08:21:47.591Z,8.80
2019-02-05T08:22:47.600Z,7.30
2019-02-05T08:23:47.566Z,8.10
2019-02-05T08:24:47.591Z,9.40
2019-02-05T08:25:47.542Z,8.30
2019-02-05T08:26:47.584Z,7.90
2019-02-05T08:27:47.560Z,8.10
2019-02-05T08:28:47.505Z,6.30
2019-02-05T08:29:47.533Z,8.10
2019-02-05T08:30:47.495Z,7.30
2019-02-05T08:31:47.539Z,7.90
2019-02-05T08:32:47.465Z,10.00
2019-02-05T08:33:47.464Z,8.60
2019-02-05T08:34:47.450Z,9.80
2019-02-05T08:35:47.438Z,8.10
2019-02-05T08:36:47.507Z,7.30
2019-02-05T08:37:47.431Z,8.50
2019-02-05T08:38:47.422Z,7.70
2019-02-05T08:39:47.439Z,8.80
2019-02-05T08:40:47.434Z,7.10
2019-02-05T08:41:47.419Z,9.60
2019-02-05T08:42:47.363Z,8.60
2019-02-05T08:43:47.361Z,8.90
2019-02-05T08:44:47.366Z,8.40
2019-02-05T08:45:56.380Z,9.00
2019-02-05T08:46:48.316Z,10.30
2019-02-05T08:47:47.348Z,7.80
2019-02-05T08:48:47.339Z,8.70
2019-02-05T08:49:47.318Z,10.40
2019-02-05T08:50:47.322Z,10.80
2019-02-05T08:51:47.265Z,10.20
2019-02-05T08:52:47.260Z,8.10
2019-02-05T08:53:47.326Z,11.00
2019-02-05T08:54:47.246Z,8.40
2019-02-05T08:55:47.219Z,8.90
2019-02-05T08:56:47.227Z,8.30
2019-02-05T08:57:47.226Z,9.10
2019-02-05T08:58:47.208Z,8.30
2019-02-05T08:59:47.216Z,8.50
2019-02-05T09:00:47.229Z,8.80
2019-02-05T09:01:47.201Z,9.60
2019-02-05T09:02:47.187Z,8.90
2019-02-05T09:03:47.201Z,8.20
2019-02-05T09:04:47.175Z,9.20
2019-02-05T09:05:47.130Z,9.50
2019-02-05T09:06:47.135Z,8.80
2019-02-05T09:07:47.121Z,8.90
2019-02-05T09:08:47.088Z,7.80
2019-02-05T09:09:47.140Z,7.80
2019-02-05T09:10:47.087Z,9.20
2019-02-05T09:11:47.072Z,7.70
2019-02-05T09:12:47.069Z,8.00
2019-02-05T09:13:47.035Z,9.10
2019-02-05T09:14:47.030Z,7.10
2019-02-05T09:15:47.017Z,9.10
2019-02-05T09:16:47.024Z,9.10
2019-02-05T09:17:46.994Z,10.10
2019-02-05T09:18:46.983Z,9.40
2019-02-05T09:19:46.998Z,9.60
2019-02-05T09:20:46.968Z,9.00
2019-02-05T09:21:46.955Z,8.60
2019-02-05T09:22:46.935Z,7.60
2019-02-05T09:23:46.994Z,10.20
2019-02-05T09:24:46.961Z,7.90
2019-02-05T09:25:46.909Z,9.30
2019-02-05T09:26:46.902Z,8.90
2019-02-05T09:27:46.941Z,7.80
2019-02-05T09:28:46.885Z,8.00
2019-02-05T09:29:46.904Z,8.20
2019-02-05T09:30:46.904Z,7.10
2019-02-05T09:31:46.841Z,7.70
2019-02-05T09:32:46.841Z,8.10
2019-02-05T09:33:46.824Z,9.50
2019-02-05T09:34:46.803Z,7.90
2019-02-05T09:35:46.910Z,6.60
2019-02-05T09:36:46.806Z,9.70
2019-02-05T09:37:46.771Z,7.90
2019-02-05T09:38:46.751Z,11.00
2019-02-05T09:39:46.741Z,10.90
2019-02-05T09:40:46.733Z,7.90
2019-02-05T09:41:46.754Z,8.70
2019-02-05T09:42:46.766Z,8.00
2019-02-05T09:43:46.709Z,7.80
2019-02-05T09:44:46.696Z,8.50
2019-02-05T09:45:46.715Z,7.70
2019-02-05T09:46:46.675Z,9.30
2019-02-05T09:47:46.732Z,6.30
2019-02-05T09:48:46.655Z,8.20
2019-02-05T09:49:46.741Z,8.60
2019-02-05T09:50:46.624Z,7.80
2019-02-05T09:51:46.629Z,8.70
2019-02-05T09:52:46.635Z,8.60
2019-02-05T09:53:46.626Z,8.90
2019-02-05T09:54:46.607Z,8.70
2019-02-05T09:55:46.653Z,6.60
2019-02-05T09:56:46.570Z,8.40
2019-02-05T09:57:46.635Z,9.10
2019-02-05T09:58:46.573Z,8.70
2019-02-05T09:59:46.555Z,10.60
2019-02-05T10:00:46.539Z,7.60
2019-02-05T10:01:46.507Z,7.40
2019-02-05T10:02:46.536Z,7.00
2019-02-05T10:03:46.503Z,8.10
2019-02-05T10:04:46.474Z,6.80
2019-02-05T10:05:46.464Z,7.40
2019-02-05T10:06:46.458Z,6.70
2019-02-05T10:07:46.453Z,7.70
2019-02-05T10:08:46.444Z,7.10
2019-02-05T10:09:46.454Z,7.60
2019-02-05T10:10:46.433Z,6.60
2019-02-05T10:11:46.410Z,7.90
2019-02-05T10:12:47.011Z,7.10
2019-02-05T10:13:46.413Z,6.60
2019-02-05T10:14:46.384Z,7.20
2019-02-05T10:15:46.372Z,7.10
2019-02-05T10:16:46.400Z,7.70
2019-02-05T10:17:46.383Z,9.70
2019-02-05T10:18:46.349Z,7.70
2019-02-05T10:19:46.336Z,6.90
2019-02-05T10:20:46.314Z,6.30
2019-02-05T10:21:46.321Z,8.00
2019-02-05T10:22:46.290Z,6.70
2019-02-05T10:23:46.283Z,8.70
2019-02-05T10:24:46.292Z,6.60
2019-02-05T10:25:46.283Z,8.60
2019-02-05T10:26:46.260Z,7.60
2019-02-05T10:27:46.284Z,6.80
2019-02-05T10:28:46.237Z,7.00
2019-02-05T10:29:56.487Z,7.20
2019-02-05T10:30:47.213Z,8.80
2019-02-05T10:31:46.227Z,6.20
2019-02-05T10:32:46.190Z,8.00
2019-02-05T10:33:54.972Z,7.10
2019-02-05T10:34:47.152Z,7.40
2019-02-05T10:35:46.187Z,6.90
2019-02-05T10:36:46.154Z,7.90
2019-02-05T10:37:46.117Z,7.00
2019-02-05T10:38:46.108Z,7.60
2019-02-05T10:39:46.133Z,8.60
2019-02-05T10:40:46.097Z,7.30
2019-02-05T10:41:46.119Z,6.20
2019-02-05T10:42:46.084Z,6.30
2019-02-05T10:43:46.052Z,8.90
2019-02-05T10:44:46.055Z,9.30
2019-02-05T10:45:46.033Z,7.20
2019-02-05T10:46:46.075Z,6.70
2019-02-05T10:47:46.053Z,6.50
2019-02-05T10:48:46.044Z,6.70
2019-02-05T10:49:46.012Z,7.10
2019-02-05T10:50:45.973Z,7.50
2019-02-05T10:51:45.987Z,6.10
2019-02-05T10:52:45.970Z,5.50
2019-02-05T10:53:45.966Z,7.10
2019-02-05T10:54:45.948Z,6.00
2019-02-05T10:55:45.987Z,5.80
2019-02-05T10:56:45.924Z,7.40
2019-02-05T10:57:45.900Z,6.60
2019-02-05T10:58:45.910Z,6.60
2019-02-05T10:59:45.959Z,5.30
2019-02-05T11:00:45.870Z,5.90
2019-02-05T11:01:45.872Z,6.10
2019-02-05T11:02:45.856Z,6.30
2019-02-05T11:03:45.850Z,6.80
2019-02-05T11:04:45.855Z,5.80
2019-02-05T11:05:45.814Z,5.20
2019-02-05T11:06:45.835Z,6.30
2019-02-05T11:07:45.811Z,6.40
2019-02-05T11:08:45.789Z,6.00
2019-02-05T11:09:45.890Z,6.00
2019-02-05T11:10:45.781Z,5.60
2019-02-05T11:11:45.751Z,5.20
2019-02-05T11:12:45.756Z,7.40
2019-02-05T11:13:45.758Z,7.80
2019-02-05T11:14:45.715Z,7.90
2019-02-05T11:15:45.716Z,6.80
2019-02-05T11:16:45.704Z,6.70
2019-02-05T11:17:45.682Z,7.50
2019-02-05T11:18:45.702Z,6.40
2019-02-05T11:19:45.695Z,8.10
2019-02-05T11:20:45.657Z,8.30
2019-02-05T11:21:45.654Z,6.40
2019-02-05T11:22:45.628Z,6.70
2019-02-05T11:23:45.695Z,7.60
2019-02-05T11:24:45.636Z,7.20
2019-02-05T11:25:45.610Z,6.60
2019-02-05T11:26:45.630Z,7.30
2019-02-05T11:27:46.049Z,6.50
2019-02-05T11:28:45.570Z,7.10
2019-02-05T11:29:45.557Z,9.40
2019-02-05T11:30:45.551Z,9.00
2019-02-05T11:31:45.588Z,7.90
2019-02-05T11:32:45.530Z,8.20
2019-02-05T11:33:45.535Z,6.70
2019-02-05T11:34:45.506Z,8.20
2019-02-05T11:35:45.485Z,6.80
2019-02-05T11:36:45.502Z,6.50
2019-02-05T11:37:45.490Z,7.50
2019-02-05T11:38:45.462Z,6.80
2019-02-05T11:39:45.453Z,7.00
2019-02-05T11:40:45.468Z,8.70
2019-02-05T11:41:45.468Z,9.50
2019-02-05T11:42:45.430Z,7.80
2019-02-05T11:43:45.417Z,6.70
2019-02-05T11:44:45.426Z,7.70
2019-02-05T11:45:45.384Z,8.40
2019-02-05T11:46:45.373Z,6.10
2019-02-05T11:47:45.357Z,6.50
2019-02-05T11:48:45.366Z,8.30
2019-02-05T11:49:45.345Z,8.90
2019-02-05T11:50:45.347Z,7.20
2019-02-05T11:51:45.336Z,8.70
2019-02-05T11:52:45.321Z,7.20
2019-02-05T11:53:45.309Z,6.80
2019-02-05T11:54:45.305Z,8.10
2019-02-05T11:55:45.407Z,7.30
2019-02-05T11:56:46.246Z,8.30
2019-02-05T11:57:45.277Z,7.30
2019-02-05T11:58:45.282Z,9.00
2019-02-05T11:59:45.286Z,5.80
2019-02-05T12:00:45.242Z,6.20
2019-02-05T12:01:45.215Z,9.00
2019-02-05T12:02:45.247Z,8.50
2019-02-05T12:03:45.202Z,6.40
2019-02-05T12:04:45.176Z,6.80
2019-02-05T12:05:45.169Z,8.70
2019-02-05T12:06:45.151Z,7.70
2019-02-05T12:07:45.137Z,7.30
2019-02-05T12:08:45.136Z,8.50
2019-02-05T12:09:45.158Z,8.00
2019-02-05T12:10:45.147Z,7.30
2019-02-05T12:11:45.139Z,9.30
2019-02-05T12:12:45.082Z,8.10
2019-02-05T12:13:45.093Z,10.10
2019-02-05T12:14:45.097Z,6.80
2019-02-05T12:15:45.062Z,9.40
2019-02-05T12:16:45.054Z,8.10
2019-02-05T12:17:45.043Z,6.70
2019-02-05T12:18:45.024Z,7.40
2019-02-05T12:19:45.028Z,8.10
2019-02-05T12:20:45.000Z,6.40
2019-02-05T12:21:44.987Z,6.70
2019-02-05T12:22:45.001Z,6.90
2019-02-05T12:23:44.972Z,8.00
2019-02-05T12:24:44.974Z,7.60
2019-02-05T12:25:44.957Z,7.40
2019-02-05T12:26:44.948Z,7.80
2019-02-05T12:27:44.923Z,7.10
2019-02-05T12:28:44.927Z,6.50
2019-02-05T12:29:44.936Z,7.60
2019-02-05T12:30:45.725Z,6.30
2019-02-05T12:31:44.877Z,8.80
2019-02-05T12:32:44.866Z,7.20
2019-02-05T12:33:44.882Z,6.20
2019-02-05T12:34:44.848Z,5.90
2019-02-05T12:35:44.855Z,6.60
2019-02-05T12:36:44.845Z,7.40
2019-02-05T12:37:44.880Z,6.90
2019-02-05T12:38:44.821Z,8.00
2019-02-05T12:39:44.790Z,7.00
2019-02-05T12:40:44.805Z,6.50
2019-02-05T12:41:44.815Z,8.10
2019-02-05T12:42:44.768Z,8.20
2019-02-05T12:43:44.777Z,6.00
2019-02-05T12:44:44.758Z,8.70
2019-02-05T12:45:44.727Z,8.00
2019-02-05T12:46:44.722Z,11.50
2019-02-05T12:47:44.731Z,6.30
2019-02-05T12:48:44.703Z,6.00
2019-02-05T12:49:44.691Z,7.40
2019-02-05T12:50:44.668Z,7.10
2019-02-05T12:51:44.660Z,6.80
2019-02-05T12:52:44.667Z,7.50
2019-02-05T12:53:44.650Z,7.80
2019-02-05T12:54:44.648Z,9.10
2019-02-05T12:55:44.634Z,7.00
2019-02-05T12:56:44.607Z,7.00
2019-02-05T12:57:44.636Z,7.90
2019-02-05T12:58:44.635Z,8.70
2019-02-05T12:59:44.573Z,8.70
2019-02-05T13:00:56.002Z,6.80
2019-02-05T13:01:45.574Z,6.20
2019-02-05T13:02:44.542Z,7.00
2019-02-05T13:03:44.566Z,7.40
2019-02-05T13:04:44.529Z,7.50
2019-02-05T13:05:44.526Z,8.90
2019-02-05T13:06:44.561Z,7.70
2019-02-05T13:07:44.542Z,7.30
2019-02-05T13:08:44.489Z,7.90
2019-02-05T13:09:44.474Z,8.60
2019-02-05T13:10:44.452Z,7.10
2019-02-05T13:11:44.447Z,8.10
2019-02-05T13:12:44.459Z,9.60
2019-02-05T13:13:44.433Z,8.10
2019-02-05T13:14:44.424Z,6.70
2019-02-05T13:15:44.451Z,7.20
2019-02-05T13:16:44.412Z,8.50
2019-02-05T13:17:44.409Z,9.10
2019-02-05T13:18:44.416Z,8.30